El Paso, Texas
Current Conditions -  °F | °C
As of 8:51 PM on Thursday 18 Dec 2014 (Local Time) from KELP Reporting Station
Broken Clouds Broken Clouds  
Wind Chill: 41°   Ceiling: 6000
Heat Index: 47°   Visibility: 10mi
Dew Point: 40°   Wind: 14mph
Humidity: 77%   Direction: 260°W
Pressure: 30.13"   Gusts: NA
Location:  31.76°N, 106.48°W
Report Text: KELP 190351Z 26012KT 10SM FEW028 BKN060 BKN100 08/04 A3013 RMK AO2 RAE44 SLP178 CLDS TPG MTNS W-NW P0000 T00830044
Loading
Personal Weather Stations






























Interactive Weather Map New forecast layout! Learn more

10-Day Weather Forecast

Advertisements
Track Severe Weather on mobile